createdAt,value
2019-06-15T00:00:30.298Z,13.80
2019-06-15T00:02:58.867Z,13.70
2019-06-15T00:05:27.436Z,13.70
2019-06-15T00:07:56.003Z,13.70
2019-06-15T00:10:24.574Z,13.60
2019-06-15T00:12:53.119Z,13.50
2019-06-15T00:15:21.736Z,13.50
2019-06-15T00:17:50.285Z,13.40
2019-06-15T00:20:18.899Z,13.40
2019-06-15T00:22:47.471Z,13.30
2019-06-15T00:25:16.203Z,13.30
2019-06-15T00:27:44.756Z,13.20
2019-06-15T00:30:13.453Z,13.20
2019-06-15T00:32:42.261Z,13.10
2019-06-15T00:35:11.114Z,13.10
2019-06-15T00:37:39.924Z,13.10
2019-06-15T00:40:08.597Z,13.10
2019-06-15T00:42:37.214Z,13.00
2019-06-15T00:45:05.902Z,13.00
2019-06-15T00:47:34.548Z,13.00
2019-06-15T00:50:03.199Z,12.90
2019-06-15T00:52:31.860Z,12.90
2019-06-15T00:55:00.575Z,12.90
2019-06-15T00:57:29.709Z,12.90
2019-06-15T00:59:58.305Z,12.90
2019-06-15T01:02:26.991Z,12.90
2019-06-15T01:04:55.572Z,12.80
2019-06-15T01:07:24.449Z,12.80
2019-06-15T01:09:53.128Z,12.70
2019-06-15T01:12:21.804Z,12.70
2019-06-15T01:14:50.385Z,12.70
2019-06-15T01:17:18.946Z,12.70
2019-06-15T01:19:47.534Z,12.60
2019-06-15T01:22:16.136Z,12.60
2019-06-15T01:24:44.935Z,12.60
2019-06-15T01:27:13.807Z,12.50
2019-06-15T01:29:42.613Z,12.50
2019-06-15T01:32:11.251Z,12.50
2019-06-15T01:34:39.981Z,12.40
2019-06-15T01:37:08.542Z,12.40
2019-06-15T01:39:37.363Z,12.40
2019-06-15T01:42:06.020Z,12.30
2019-06-15T01:44:34.571Z,12.30
2019-06-15T01:47:03.235Z,12.30
2019-06-15T01:49:31.869Z,12.30
2019-06-15T01:52:00.439Z,12.30
2019-06-15T01:54:29.163Z,12.30
2019-06-15T01:56:57.719Z,12.30
2019-06-15T01:59:26.855Z,12.30
2019-06-15T02:01:55.550Z,12.30
2019-06-15T02:04:24.163Z,12.20
2019-06-15T02:06:52.758Z,12.20
2019-06-15T02:09:21.343Z,12.20
2019-06-15T02:11:49.940Z,12.20
2019-06-15T02:14:18.644Z,12.20
2019-06-15T02:16:47.359Z,12.30
2019-06-15T02:19:15.915Z,12.20
2019-06-15T02:21:44.465Z,12.20
2019-06-15T02:24:13.022Z,12.20
2019-06-15T02:26:41.771Z,12.20
2019-06-15T02:29:10.590Z,12.20
2019-06-15T02:31:39.452Z,12.20
2019-06-15T02:34:08.045Z,12.20
2019-06-15T02:36:36.589Z,12.20
2019-06-15T02:39:06.605Z,12.20
2019-06-15T02:41:35.288Z,12.20
2019-06-15T02:44:03.991Z,12.20
2019-06-15T02:46:32.589Z,12.20
2019-06-15T02:49:01.162Z,12.30
2019-06-15T02:51:29.881Z,12.30
2019-06-15T02:53:58.465Z,12.30
2019-06-15T02:56:27.257Z,12.30
2019-06-15T02:58:55.837Z,12.30
2019-06-15T03:01:24.771Z,12.40
2019-06-15T03:03:53.346Z,12.40
2019-06-15T03:06:21.981Z,12.40
2019-06-15T03:08:50.568Z,12.40
2019-06-15T03:11:19.262Z,12.40
2019-06-15T03:13:47.831Z,12.50
2019-06-15T03:16:16.368Z,12.40
2019-06-15T03:18:44.967Z,12.50
2019-06-15T03:21:13.508Z,12.50
2019-06-15T03:23:42.087Z,12.60
2019-06-15T03:26:10.846Z,12.60
2019-06-15T03:28:39.399Z,12.70
2019-06-15T03:31:08.554Z,12.70
2019-06-15T03:33:37.096Z,12.70
2019-06-15T03:36:05.692Z,12.80
2019-06-15T03:38:34.387Z,12.90
2019-06-15T03:41:03.011Z,13.00
2019-06-15T03:43:31.591Z,13.10
2019-06-15T03:46:00.164Z,13.10
2019-06-15T03:48:28.760Z,13.20
2019-06-15T03:50:57.401Z,13.20
2019-06-15T03:53:25.979Z,13.20
2019-06-15T03:55:54.765Z,13.30
2019-06-15T03:58:23.469Z,13.30
2019-06-15T04:01:05.975Z,13.40
2019-06-15T04:03:34.828Z,13.50
2019-06-15T04:06:03.465Z,13.60
2019-06-15T04:08:32.148Z,13.70
2019-06-15T04:11:00.704Z,13.90
2019-06-15T04:13:29.268Z,14.10
2019-06-15T04:15:57.824Z,14.30
2019-06-15T04:18:26.399Z,14.70
2019-06-15T04:20:55.167Z,14.90
2019-06-15T04:23:23.724Z,15.20
2019-06-15T04:25:52.468Z,15.50
2019-06-15T04:28:21.098Z,15.70
2019-06-15T04:30:49.648Z,15.90
2019-06-15T04:33:18.774Z,16.20
2019-06-15T04:35:47.332Z,16.30
2019-06-15T04:38:15.964Z,16.40
2019-06-15T04:40:44.519Z,16.50
2019-06-15T04:43:13.232Z,16.60
2019-06-15T04:45:41.763Z,16.80
2019-06-15T04:48:10.320Z,17.00
2019-06-15T04:50:38.863Z,17.10
2019-06-15T04:53:07.437Z,17.40
2019-06-15T04:55:36.042Z,17.60
2019-06-15T04:58:04.809Z,17.80
2019-06-15T05:00:33.528Z,17.90
2019-06-15T05:03:02.118Z,18.20
2019-06-15T05:05:30.815Z,18.50
2019-06-15T05:07:59.379Z,18.70
2019-06-15T05:10:27.941Z,18.80
2019-06-15T05:12:56.496Z,18.70
2019-06-15T05:15:25.064Z,18.70
2019-06-15T05:17:53.714Z,18.60
2019-06-15T05:20:22.293Z,18.60
2019-06-15T05:22:50.880Z,18.50
2019-06-15T05:25:19.731Z,18.50
2019-06-15T05:27:48.351Z,18.50
2019-06-15T05:30:16.987Z,18.40
2019-06-15T05:32:45.630Z,18.30
2019-06-15T05:35:14.822Z,18.20
2019-06-15T05:37:43.408Z,18.20
2019-06-15T05:40:12.039Z,18.20
2019-06-15T05:42:40.620Z,18.20
2019-06-15T05:45:09.879Z,18.30
2019-06-15T05:47:38.457Z,18.40
2019-06-15T05:50:07.133Z,18.50
2019-06-15T05:52:35.908Z,18.60
2019-06-15T05:55:05.496Z,18.50
2019-06-15T05:57:34.207Z,18.40
2019-06-15T06:00:03.075Z,18.50
2019-06-15T06:02:31.595Z,18.50
2019-06-15T06:05:00.151Z,18.70
2019-06-15T06:07:28.940Z,18.90
2019-06-15T06:09:57.663Z,19.30
2019-06-15T06:12:26.341Z,19.50
2019-06-15T06:14:54.908Z,19.80
2019-06-15T06:17:23.686Z,20.20
2019-06-15T06:19:52.243Z,20.10
2019-06-15T06:22:20.788Z,20.40
2019-06-15T06:24:49.356Z,20.80
2019-06-15T06:27:17.919Z,21.10
2019-06-15T06:29:46.472Z,21.00
2019-06-15T06:32:15.045Z,20.80
2019-06-15T06:34:43.597Z,20.80
2019-06-15T06:37:12.193Z,21.20
2019-06-15T06:39:40.736Z,21.10
2019-06-15T06:42:09.301Z,21.10
2019-06-15T06:44:37.847Z,21.10
2019-06-15T06:47:06.993Z,21.20
2019-06-15T06:49:35.552Z,21.10
2019-06-15T06:52:04.224Z,21.20
2019-06-15T06:54:32.772Z,21.40
2019-06-15T06:57:01.350Z,21.70
2019-06-15T06:59:29.920Z,21.70
2019-06-15T07:01:58.505Z,21.70
2019-06-15T07:04:27.092Z,21.70
2019-06-15T07:06:55.633Z,21.60
2019-06-15T07:09:24.307Z,21.80
2019-06-15T07:11:52.954Z,22.00
2019-06-15T07:14:21.491Z,22.40
2019-06-15T07:16:50.055Z,22.90
2019-06-15T07:19:18.599Z,23.30
2019-06-15T07:21:47.164Z,23.50
2019-06-15T07:24:15.873Z,23.80
2019-06-15T07:26:44.457Z,23.90
2019-06-15T07:29:13.044Z,24.00
2019-06-15T07:31:41.617Z,24.00
2019-06-15T07:34:10.205Z,23.80
2019-06-15T07:36:38.763Z,23.50
2019-06-15T07:39:07.447Z,23.40
2019-06-15T07:41:36.073Z,23.60
2019-06-15T07:44:04.672Z,23.80
2019-06-15T07:46:33.254Z,24.10
2019-06-15T07:49:04.904Z,24.40
2019-06-15T07:51:30.792Z,24.60
2019-06-15T07:53:59.362Z,24.80
2019-06-15T07:56:28.049Z,24.80
2019-06-15T07:58:56.702Z,24.90
2019-06-15T08:01:25.264Z,24.70
2019-06-15T08:03:54.105Z,25.00
2019-06-15T08:06:22.661Z,25.10
2019-06-15T08:08:51.213Z,25.10
2019-06-15T08:11:20.020Z,25.10
2019-06-15T08:13:48.616Z,24.30
2019-06-15T08:16:17.200Z,23.70
2019-06-15T08:18:45.911Z,23.60
2019-06-15T08:21:14.495Z,23.50
2019-06-15T08:23:43.102Z,23.90
2019-06-15T08:26:11.689Z,24.20
2019-06-15T08:28:40.836Z,24.20
2019-06-15T08:31:08.859Z,24.30
2019-06-15T08:33:37.452Z,24.40
2019-06-15T08:36:06.039Z,24.50
2019-06-15T08:38:34.786Z,24.60
2019-06-15T08:41:03.392Z,24.80
2019-06-15T08:43:31.943Z,25.00
2019-06-15T08:46:00.505Z,25.20
2019-06-15T08:48:29.917Z,25.40
2019-06-15T08:50:58.851Z,25.40
2019-06-15T08:53:27.459Z,25.70
2019-06-15T08:55:56.020Z,26.20
2019-06-15T08:58:24.603Z,26.50
2019-06-15T09:00:53.163Z,26.60
2019-06-15T09:03:21.968Z,26.20
2019-06-15T09:05:50.532Z,26.20
2019-06-15T09:08:19.140Z,26.30
2019-06-15T09:10:47.699Z,26.30
2019-06-15T09:13:16.411Z,26.40
2019-06-15T09:15:50.420Z,26.50
2019-06-15T09:18:19.070Z,26.80
2019-06-15T09:20:48.620Z,26.70
2019-06-15T09:23:17.168Z,26.60
2019-06-15T09:25:45.986Z,26.50
2019-06-15T09:28:14.580Z,26.40
2019-06-15T09:30:43.195Z,26.60
2019-06-15T09:33:11.790Z,26.80
2019-06-15T09:35:40.629Z,27.00
2019-06-15T09:38:09.228Z,27.40
2019-06-15T09:40:37.844Z,27.40
2019-06-15T09:43:06.436Z,27.60
2019-06-15T09:45:35.043Z,27.50
2019-06-15T09:48:03.849Z,27.10
2019-06-15T09:50:32.538Z,27.10
2019-06-15T09:53:01.528Z,26.90
2019-06-15T09:55:30.214Z,26.90
2019-06-15T09:57:58.839Z,27.30
2019-06-15T10:00:27.587Z,27.20
2019-06-15T10:02:56.239Z,28.00
2019-06-15T10:05:24.915Z,28.70
2019-06-15T10:07:53.592Z,28.80
2019-06-15T10:10:22.231Z,28.90
2019-06-15T10:12:51.684Z,28.90
2019-06-15T10:15:20.415Z,28.60
2019-06-15T10:17:49.158Z,28.50
2019-06-15T10:20:17.854Z,28.20
2019-06-15T10:22:46.419Z,28.40
2019-06-15T10:25:15.108Z,28.80
2019-06-15T10:27:44.131Z,28.80
2019-06-15T10:30:12.944Z,28.80
2019-06-15T10:32:41.548Z,29.00
2019-06-15T10:35:10.225Z,29.00
2019-06-15T10:37:38.876Z,29.00
2019-06-15T10:40:07.712Z,29.40
2019-06-15T10:42:36.368Z,29.60
2019-06-15T10:45:05.468Z,29.40
2019-06-15T10:47:34.138Z,29.20
2019-06-15T10:50:02.749Z,29.30
2019-06-15T10:52:31.454Z,29.20
2019-06-15T10:55:00.396Z,28.80
2019-06-15T10:57:29.492Z,28.80
2019-06-15T10:59:58.173Z,28.50
2019-06-15T11:02:26.817Z,28.30
2019-06-15T11:04:55.438Z,28.70
2019-06-15T11:07:24.092Z,29.00
2019-06-15T11:09:52.687Z,28.90
2019-06-15T11:12:21.369Z,29.20
2019-06-15T11:14:49.967Z,29.20
2019-06-15T11:17:21.328Z,29.00
2019-06-15T11:19:50.307Z,28.90
2019-06-15T11:22:18.978Z,29.00
2019-06-15T11:24:51.876Z,29.00
2019-06-15T11:27:20.513Z,29.30
2019-06-15T11:29:49.083Z,29.50
2019-06-15T11:32:17.864Z,29.40
2019-06-15T11:34:46.469Z,29.00
2019-06-15T11:37:15.238Z,28.90
2019-06-15T11:39:43.925Z,29.00
2019-06-15T11:42:12.654Z,29.30
2019-06-15T11:44:41.244Z,29.40
2019-06-15T11:47:09.862Z,29.40
2019-06-15T11:49:38.490Z,29.30
2019-06-15T11:52:07.262Z,29.00
2019-06-15T11:54:38.003Z,28.70
2019-06-15T11:57:07.796Z,28.60
2019-06-15T11:59:36.393Z,28.60
2019-06-15T12:02:05.178Z,29.00
2019-06-15T12:04:34.161Z,29.30
2019-06-15T12:07:03.789Z,29.20
2019-06-15T12:09:34.152Z,28.50
2019-06-15T12:12:02.792Z,28.40
2019-06-15T12:14:31.425Z,28.50
2019-06-15T12:17:00.336Z,28.60
2019-06-15T12:19:29.008Z,28.40
2019-06-15T12:21:57.599Z,28.20
2019-06-15T12:24:26.306Z,28.10
2019-06-15T12:26:54.913Z,28.10
2019-06-15T12:29:23.548Z,28.10
2019-06-15T12:31:52.162Z,28.50
2019-06-15T12:34:21.268Z,28.70
2019-06-15T12:36:49.490Z,28.80
2019-06-15T12:39:18.124Z,28.70
2019-06-15T12:41:46.906Z,28.80
2019-06-15T12:44:15.582Z,28.50
2019-06-15T12:46:44.129Z,28.40
2019-06-15T12:49:12.793Z,28.30
2019-06-15T12:51:42.007Z,28.20
2019-06-15T12:54:10.619Z,28.30
2019-06-15T12:56:39.323Z,28.10
2019-06-15T12:59:08.233Z,28.10
2019-06-15T13:01:37.007Z,27.90
2019-06-15T13:04:05.674Z,27.70
2019-06-15T13:06:34.682Z,27.50
2019-06-15T13:09:03.516Z,27.90
2019-06-15T13:11:32.117Z,27.90
2019-06-15T13:14:00.791Z,27.90
2019-06-15T13:16:39.065Z,28.10
2019-06-15T13:18:58.065Z,28.20
2019-06-15T13:21:27.089Z,28.30
2019-06-15T13:23:55.709Z,28.30
2019-06-15T13:26:24.468Z,28.60
2019-06-15T13:28:53.402Z,28.20
2019-06-15T13:31:22.191Z,27.90
2019-06-15T13:33:50.839Z,28.10
2019-06-15T13:36:19.997Z,27.90
2019-06-15T13:38:48.600Z,27.50
2019-06-15T13:41:17.156Z,27.40
2019-06-15T13:43:46.202Z,27.50
2019-06-15T13:46:14.802Z,27.60
2019-06-15T13:48:43.382Z,27.80
2019-06-15T13:51:12.152Z,27.90
2019-06-15T13:53:40.757Z,28.30
2019-06-15T13:56:09.324Z,28.40
2019-06-15T13:58:38.093Z,28.20
2019-06-15T14:01:06.745Z,27.90
2019-06-15T14:03:35.501Z,28.20
2019-06-15T14:06:04.574Z,28.20
2019-06-15T14:08:33.337Z,27.70
2019-06-15T14:11:02.066Z,27.60
2019-06-15T14:13:30.729Z,27.40
2019-06-15T14:15:59.263Z,27.20
2019-06-15T14:18:28.019Z,26.80
2019-06-15T14:20:56.773Z,26.20
2019-06-15T14:23:25.363Z,26.30
2019-06-15T14:25:54.164Z,26.10
2019-06-15T14:28:23.021Z,26.10
2019-06-15T14:30:51.621Z,26.30
2019-06-15T14:33:20.233Z,26.60
2019-06-15T14:35:49.081Z,26.40
2019-06-15T14:38:17.708Z,26.20
2019-06-15T14:40:46.355Z,26.20
2019-06-15T14:43:15.070Z,26.10
2019-06-15T14:45:58.074Z,26.00
2019-06-15T14:48:12.342Z,26.10
2019-06-15T14:50:41.077Z,26.00
2019-06-15T14:53:09.663Z,25.70
2019-06-15T14:55:38.355Z,25.40
2019-06-15T14:58:07.385Z,25.10
2019-06-15T15:00:36.081Z,25.10
2019-06-15T15:03:06.851Z,25.20
2019-06-15T15:05:35.983Z,25.50
2019-06-15T15:08:02.412Z,25.60
2019-06-15T15:10:30.991Z,25.60
2019-06-15T15:12:59.988Z,25.60
2019-06-15T15:15:28.801Z,25.90
2019-06-15T15:17:57.823Z,26.00
2019-06-15T15:20:26.521Z,25.80
2019-06-15T15:22:56.893Z,25.60
2019-06-15T15:25:26.110Z,25.60
2019-06-15T15:27:52.853Z,25.80
2019-06-15T15:30:27.367Z,25.80
2019-06-15T15:32:57.119Z,25.70
2019-06-15T15:35:26.939Z,25.70
2019-06-15T15:37:53.734Z,25.80
2019-06-15T15:40:22.511Z,25.90
2019-06-15T15:42:51.097Z,25.90
2019-06-15T15:45:20.098Z,25.90
2019-06-15T15:47:48.885Z,25.70
2019-06-15T15:50:17.774Z,25.50
2019-06-15T15:52:46.331Z,25.60
2019-06-15T15:55:17.190Z,25.70
2019-06-15T15:57:43.652Z,25.90
2019-06-15T16:00:16.461Z,25.70
2019-06-15T16:02:51.588Z,25.70
2019-06-15T16:05:12.812Z,25.80
2019-06-15T16:07:41.442Z,25.70
2019-06-15T16:10:10.608Z,25.70
2019-06-15T16:12:39.199Z,25.60
2019-06-15T16:15:07.920Z,25.50
2019-06-15T16:17:37.419Z,25.40
2019-06-15T16:20:06.605Z,25.40
2019-06-15T16:22:36.864Z,25.40
2019-06-15T16:25:03.144Z,25.30
2019-06-15T16:27:31.950Z,25.20
2019-06-15T16:30:00.714Z,25.20
2019-06-15T16:32:29.611Z,25.30
2019-06-15T16:34:58.292Z,25.40
2019-06-15T16:37:26.840Z,25.40
2019-06-15T16:39:55.790Z,25.40
2019-06-15T16:42:26.609Z,25.40
2019-06-15T16:44:53.227Z,25.40
2019-06-15T16:47:21.970Z,25.30
2019-06-15T16:49:50.601Z,25.20
2019-06-15T16:52:19.194Z,25.00
2019-06-15T16:54:48.317Z,25.00
2019-06-15T16:57:17.203Z,24.90
2019-06-15T16:59:46.787Z,24.70
2019-06-15T17:02:16.981Z,24.70
2019-06-15T17:04:43.358Z,24.70
2019-06-15T17:07:11.959Z,24.60
2019-06-15T17:09:40.780Z,24.70
2019-06-15T17:12:09.348Z,24.60
2019-06-15T17:14:38.007Z,24.50
2019-06-15T17:17:06.746Z,24.50
2019-06-15T17:19:36.270Z,24.30
2019-06-15T17:22:14.802Z,24.40
2019-06-15T17:24:33.303Z,24.90
2019-06-15T17:27:01.885Z,25.20
2019-06-15T17:29:30.717Z,25.00
2019-06-15T17:31:59.449Z,24.60
2019-06-15T17:34:28.107Z,24.40
2019-06-15T17:36:57.477Z,24.30
2019-06-15T17:39:29.298Z,24.20
2019-06-15T17:41:56.073Z,24.10
2019-06-15T17:44:23.129Z,24.10
2019-06-15T17:46:51.842Z,24.00
2019-06-15T17:49:20.537Z,23.90
2019-06-15T17:51:49.083Z,24.00
2019-06-15T17:54:18.205Z,23.80
2019-06-15T17:56:46.900Z,23.80
2019-06-15T17:59:16.237Z,23.80
2019-06-15T18:01:46.701Z,23.90
2019-06-15T18:04:12.870Z,23.80
2019-06-15T18:06:41.426Z,23.70
2019-06-15T18:09:10.182Z,23.70
2019-06-15T18:11:38.747Z,23.60
2019-06-15T18:14:07.337Z,23.70
2019-06-15T18:16:36.921Z,23.60
2019-06-15T18:19:06.814Z,23.50
2019-06-15T18:21:33.750Z,23.40
2019-06-15T18:24:06.679Z,23.30
2019-06-15T18:26:36.524Z,23.30
2019-06-15T18:29:02.878Z,23.30
2019-06-15T18:31:32.045Z,23.20
2019-06-15T18:34:09.554Z,23.20
2019-06-15T18:36:29.558Z,23.10
2019-06-15T18:38:58.233Z,23.00
2019-06-15T18:41:26.763Z,23.00
2019-06-15T18:43:56.527Z,22.80
2019-06-15T18:46:24.372Z,22.70
2019-06-15T18:48:52.928Z,22.60
2019-06-15T18:51:21.523Z,22.60
2019-06-15T18:53:50.661Z,22.60
2019-06-15T18:56:19.223Z,22.50
2019-06-15T18:58:47.924Z,22.50
2019-06-15T19:01:16.715Z,22.40
2019-06-15T19:03:46.718Z,22.30
2019-06-15T19:06:16.578Z,22.30
2019-06-15T19:08:42.958Z,22.20
2019-06-15T19:11:11.557Z,22.10
2019-06-15T19:13:40.180Z,22.00
2019-06-15T19:16:08.909Z,21.90
2019-06-15T19:18:38.184Z,21.70
2019-06-15T19:21:07.116Z,21.50
2019-06-15T19:23:36.068Z,21.40
2019-06-15T19:26:06.267Z,21.30
2019-06-15T19:28:33.153Z,21.20
2019-06-15T19:31:01.848Z,21.10
2019-06-15T19:33:30.447Z,20.90
2019-06-15T19:35:59.011Z,20.80
2019-06-15T19:38:27.768Z,20.70
2019-06-15T19:40:56.673Z,20.60
2019-06-15T19:43:24.952Z,20.50
2019-06-15T19:45:56.270Z,20.40
2019-06-15T19:48:22.358Z,20.30
2019-06-15T19:50:50.960Z,20.20
2019-06-15T19:53:19.708Z,20.00
2019-06-15T19:55:48.417Z,19.90
2019-06-15T19:58:17.047Z,19.80
2019-06-15T20:00:46.826Z,19.70
2019-06-15T20:03:16.639Z,19.60
2019-06-15T20:05:43.147Z,19.50
2019-06-15T20:08:12.317Z,19.40
2019-06-15T20:10:41.124Z,19.30
2019-06-15T20:13:09.730Z,19.30
2019-06-15T20:15:38.688Z,19.20
2019-06-15T20:18:07.484Z,19.20
2019-06-15T20:20:36.911Z,19.10
2019-06-15T20:23:07.241Z,19.00
2019-06-15T20:25:36.489Z,18.90
2019-06-15T20:28:02.747Z,18.80
2019-06-15T20:30:31.503Z,18.70
2019-06-15T20:33:00.118Z,18.60
2019-06-15T20:35:29.240Z,18.50
2019-06-15T20:37:58.229Z,18.40
2019-06-15T20:40:26.874Z,18.30
2019-06-15T20:42:56.597Z,18.20
2019-06-15T20:45:26.708Z,18.20
2019-06-15T20:47:55.884Z,18.10
2019-06-15T20:50:28.233Z,17.90
2019-06-15T20:52:51.024Z,17.80
2019-06-15T20:55:19.585Z,17.80
2019-06-15T20:57:49.981Z,17.70
2019-06-15T21:00:17.479Z,17.60
2019-06-15T21:02:46.078Z,17.50
2019-06-15T21:05:32.595Z,17.40
2019-06-15T21:07:43.490Z,17.40
2019-06-15T21:10:12.343Z,17.40
2019-06-15T21:12:40.991Z,17.30
2019-06-15T21:15:09.819Z,17.20
2019-06-15T21:17:38.424Z,17.20
2019-06-15T21:20:07.287Z,17.10
2019-06-15T21:22:36.415Z,17.00
2019-06-15T21:25:06.895Z,16.90
2019-06-15T21:27:36.772Z,16.90
2019-06-15T21:30:03.625Z,16.90
2019-06-15T21:32:32.403Z,16.80
2019-06-15T21:35:00.967Z,16.70
2019-06-15T21:37:29.651Z,16.60
2019-06-15T21:39:58.172Z,16.60
2019-06-15T21:42:26.893Z,16.50
2019-06-15T21:44:56.202Z,16.40
2019-06-15T21:47:26.102Z,16.30
2019-06-15T21:49:52.780Z,16.30
2019-06-15T21:52:21.497Z,16.20
2019-06-15T21:54:50.060Z,16.20
2019-06-15T21:57:18.602Z,16.20
2019-06-15T21:59:47.484Z,16.10
2019-06-15T22:02:16.102Z,16.00
2019-06-15T22:04:46.174Z,15.90
2019-06-15T22:07:13.764Z,15.80
2019-06-15T22:09:42.367Z,15.70
2019-06-15T22:12:10.916Z,15.70
2019-06-15T22:14:40.041Z,15.70
2019-06-15T22:17:08.641Z,15.60
2019-06-15T22:19:37.226Z,15.60
2019-06-15T22:22:07.501Z,15.60
2019-06-15T22:24:36.271Z,15.50
2019-06-15T22:27:03.426Z,15.50
2019-06-15T22:29:32.464Z,15.40
2019-06-15T22:32:01.046Z,15.40
2019-06-15T22:34:29.840Z,15.40
2019-06-15T22:36:58.687Z,15.40
2019-06-15T22:39:27.240Z,15.40
2019-06-15T22:41:56.148Z,15.30
2019-06-15T22:44:31.337Z,15.30
2019-06-15T22:46:59.889Z,15.30
2019-06-15T22:49:28.436Z,15.20
2019-06-15T22:51:57.172Z,15.20
2019-06-15T22:54:26.113Z,15.10
2019-06-15T22:56:56.499Z,15.20
2019-06-15T22:59:23.312Z,15.10
2019-06-15T23:01:51.868Z,15.00
2019-06-15T23:04:20.472Z,15.00
2019-06-15T23:06:49.371Z,15.00
2019-06-15T23:09:17.915Z,15.00
2019-06-15T23:11:46.853Z,14.90
2019-06-15T23:14:17.136Z,15.00
2019-06-15T23:16:47.251Z,14.90
2019-06-15T23:19:12.938Z,14.90
2019-06-15T23:21:41.611Z,14.80
2019-06-15T23:24:10.306Z,14.80
2019-06-15T23:26:38.892Z,14.80
2019-06-15T23:29:07.590Z,14.70
2019-06-15T23:31:36.731Z,14.70
2019-06-15T23:34:07.009Z,14.70
2019-06-15T23:36:51.766Z,14.60
2019-06-15T23:39:05.432Z,14.60
2019-06-15T23:41:32.647Z,14.60
2019-06-15T23:44:01.331Z,14.60
2019-06-15T23:46:29.964Z,14.50
2019-06-15T23:48:58.576Z,14.50
2019-06-15T23:51:27.384Z,14.50
2019-06-15T23:53:57.171Z,14.40
2019-06-15T23:56:26.031Z,14.40
2019-06-15T23:58:55.883Z,14.40
